createdAt,value
2019-06-07T00:00:40.135Z,6.10
2019-06-07T00:03:13.793Z,5.70
2019-06-07T00:05:37.111Z,5.43
2019-06-07T00:08:10.824Z,5.63
2019-06-07T00:10:36.889Z,5.80
2019-06-07T00:13:06.921Z,5.57
2019-06-07T00:15:35.097Z,5.30
2019-06-07T00:18:03.207Z,5.40
2019-06-07T00:20:31.280Z,5.80
2019-06-07T00:22:59.378Z,5.77
2019-06-07T00:25:27.459Z,6.00
2019-06-07T00:27:55.560Z,6.37
2019-06-07T00:30:42.402Z,7.10
2019-06-07T00:32:54.436Z,6.13
2019-06-07T00:35:22.652Z,5.97
2019-06-07T00:37:51.105Z,6.30
2019-06-07T00:40:30.897Z,5.33
2019-06-07T00:42:49.764Z,5.43
2019-06-07T00:45:19.054Z,6.00
2019-06-07T00:47:48.057Z,6.17
2019-06-07T00:50:17.017Z,5.97
2019-06-07T00:55:17.573Z,5.97
2019-06-07T00:57:45.885Z,6.73
2019-06-07T01:00:18.296Z,6.43
2019-06-07T01:02:47.780Z,6.23
2019-06-07T01:05:21.972Z,6.13
2019-06-07T01:07:46.490Z,6.40
2019-06-07T01:10:17.349Z,6.17
2019-06-07T01:12:44.526Z,5.50
2019-06-07T01:15:15.762Z,6.33
2019-06-07T01:18:32.406Z,6.50
2019-06-07T01:20:14.137Z,6.57
2019-06-07T01:22:42.780Z,6.50
2019-06-07T01:25:11.641Z,6.77
2019-06-07T01:27:39.720Z,6.63
2019-06-07T01:30:29.268Z,6.70
2019-06-07T01:32:58.794Z,6.00
2019-06-07T01:35:29.585Z,6.07
2019-06-07T01:37:59.189Z,6.27
2019-06-07T01:40:30.302Z,6.03
2019-06-07T01:42:57.962Z,7.13
2019-06-07T01:45:30.880Z,6.77
2019-06-07T01:47:57.781Z,6.60
2019-06-07T01:50:29.616Z,6.50
2019-06-07T01:52:59.510Z,6.40
2019-06-07T01:55:32.189Z,6.90
2019-06-07T01:57:59.521Z,6.43
2019-06-07T02:00:31.919Z,6.63
2019-06-07T02:02:58.911Z,6.93
2019-06-07T02:05:31.019Z,6.13
2019-06-07T02:07:58.898Z,6.40
2019-06-07T02:10:30.391Z,5.87
2019-06-07T02:12:58.897Z,5.97
2019-06-07T02:15:31.262Z,6.77
2019-06-07T02:17:58.225Z,6.43
2019-06-07T02:20:33.491Z,6.50
2019-06-07T02:22:58.724Z,6.93
2019-06-07T02:25:40.616Z,7.10
2019-06-07T02:28:44.283Z,6.20
2019-06-07T02:30:58.807Z,6.33
2019-06-07T02:33:17.979Z,6.00
2019-06-07T02:35:46.470Z,5.97
2019-06-07T02:38:15.234Z,5.73
2019-06-07T02:40:44.364Z,5.70
2019-06-07T02:43:13.994Z,6.50
2019-06-07T02:45:44.027Z,6.40
2019-06-07T02:48:13.154Z,6.87
2019-06-07T02:50:41.887Z,6.27
2019-06-07T02:53:10.555Z,6.33
2019-06-07T02:56:33.406Z,5.73
2019-06-07T02:58:09.873Z,6.10
2019-06-07T03:01:07.826Z,5.70
2019-06-07T03:03:29.976Z,5.67
2019-06-07T03:05:57.622Z,6.40
2019-06-07T03:08:28.266Z,6.40
2019-06-07T03:10:57.985Z,6.47
2019-06-07T03:13:28.910Z,7.43
2019-06-07T03:15:58.159Z,7.33
2019-06-07T03:18:32.204Z,6.93
2019-06-07T03:21:05.314Z,6.60
2019-06-07T03:23:32.401Z,7.33
2019-06-07T03:26:02.149Z,8.27
2019-06-07T03:28:34.206Z,7.80
2019-06-07T03:31:02.737Z,7.33
2019-06-07T03:33:32.424Z,7.20
2019-06-07T03:36:13.095Z,6.90
2019-06-07T03:38:33.182Z,7.90
2019-06-07T03:41:00.015Z,7.90
2019-06-07T03:43:29.868Z,7.60
2019-06-07T03:45:58.581Z,7.77
2019-06-07T03:48:28.474Z,8.00
2019-06-07T03:51:04.558Z,7.73
2019-06-07T03:53:29.682Z,7.40
2019-06-07T03:55:56.741Z,8.47
2019-06-07T03:58:38.032Z,7.90
2019-06-07T04:00:54.655Z,8.10
2019-06-07T04:03:33.307Z,7.93
2019-06-07T04:05:52.884Z,8.00
2019-06-07T04:08:20.980Z,7.87
2019-06-07T04:10:59.693Z,7.30
2019-06-07T04:13:19.197Z,7.67
2019-06-07T04:15:47.331Z,8.57
2019-06-07T04:18:15.481Z,7.07
2019-06-07T04:20:43.560Z,6.97
2019-06-07T04:23:27.753Z,7.00
2019-06-07T04:25:42.715Z,7.17
2019-06-07T04:28:11.410Z,8.07
2019-06-07T04:30:41.791Z,6.17
2019-06-07T04:33:12.573Z,6.80
2019-06-07T04:36:00.494Z,6.10
2019-06-07T04:38:36.118Z,7.10
2019-06-07T04:41:02.530Z,7.67
2019-06-07T04:43:33.544Z,7.90
2019-06-07T04:46:02.316Z,8.50
2019-06-07T04:48:35.190Z,8.60
2019-06-07T04:51:04.533Z,9.00
2019-06-07T04:53:35.244Z,8.23
2019-06-07T04:56:03.224Z,8.27
2019-06-07T04:58:31.645Z,7.90
2019-06-07T05:01:03.438Z,8.83
2019-06-07T05:03:34.727Z,8.87
2019-06-07T05:06:00.388Z,9.00
2019-06-07T05:08:31.488Z,8.77
2019-06-07T05:10:58.388Z,8.50
2019-06-07T05:13:26.468Z,9.30
2019-06-07T05:15:54.818Z,8.13
2019-06-07T05:18:22.952Z,8.67
2019-06-07T05:20:51.838Z,8.20
2019-06-07T05:24:00.078Z,8.60
2019-06-07T05:25:49.982Z,8.43
2019-06-07T05:28:18.073Z,8.60
2019-06-07T05:31:05.539Z,9.60
2019-06-07T05:33:16.659Z,8.97
2019-06-07T05:35:45.068Z,9.37
2019-06-07T05:38:13.290Z,9.13
2019-06-07T05:40:43.828Z,9.53
2019-06-07T05:43:29.210Z,9.37
2019-06-07T05:45:57.284Z,9.43
2019-06-07T05:48:26.811Z,10.33
2019-06-07T05:50:57.353Z,11.10
2019-06-07T05:53:25.872Z,10.63
2019-06-07T05:55:53.956Z,11.73
2019-06-07T05:58:22.478Z,10.57
2019-06-07T06:00:51.103Z,10.83
2019-06-07T06:03:19.805Z,11.70
2019-06-07T06:05:54.464Z,15.20
2019-06-07T06:08:17.757Z,14.70
2019-06-07T06:10:48.682Z,14.13
2019-06-07T06:13:15.990Z,14.17
2019-06-07T06:15:56.415Z,11.57
2019-06-07T06:18:14.268Z,11.27
2019-06-07T06:21:05.343Z,11.37
2019-06-07T06:23:12.174Z,13.47
2019-06-07T06:25:42.730Z,11.23
2019-06-07T06:28:12.619Z,10.27
2019-06-07T06:30:41.131Z,11.13
2019-06-07T06:33:27.054Z,11.30
2019-06-07T06:35:40.185Z,11.93
2019-06-07T06:38:08.600Z,11.63
2019-06-07T06:40:38.933Z,12.43
2019-06-07T06:43:06.532Z,10.90
2019-06-07T06:45:34.641Z,11.07
2019-06-07T06:48:02.751Z,11.03
2019-06-07T06:50:30.884Z,10.20
2019-06-07T06:52:58.960Z,9.67
2019-06-07T06:55:27.052Z,10.00
2019-06-07T06:57:55.136Z,9.90
2019-06-07T07:00:51.945Z,9.80
2019-06-07T07:05:48.592Z,9.20
2019-06-07T07:08:15.224Z,8.27
2019-06-07T07:10:45.729Z,8.87
2019-06-07T07:13:14.665Z,8.30
2019-06-07T07:15:43.358Z,9.00
2019-06-07T07:18:12.889Z,7.87
2019-06-07T07:20:43.607Z,8.53
2019-06-07T07:23:11.540Z,9.57
2019-06-07T07:25:39.680Z,8.30
2019-06-07T07:28:08.075Z,8.73
2019-06-07T07:30:55.254Z,7.63
2019-06-07T07:33:22.074Z,7.90
2019-06-07T07:36:11.011Z,8.13
2019-06-07T07:38:20.370Z,7.67
2019-06-07T07:41:01.594Z,6.37
2019-06-07T07:43:18.918Z,6.10
2019-06-07T07:45:53.141Z,6.60
2019-06-07T07:48:18.635Z,6.70
2019-06-07T07:50:49.785Z,6.27
2019-06-07T07:53:17.113Z,7.13
2019-06-07T07:55:49.486Z,5.27
2019-06-07T07:58:15.681Z,6.80
2019-06-07T08:01:00.375Z,5.57
2019-06-07T08:03:14.253Z,4.10
2019-06-07T08:05:44.993Z,5.60
2019-06-07T08:08:12.485Z,4.70
2019-06-07T08:10:40.592Z,4.27
2019-06-07T08:13:26.561Z,5.03
2019-06-07T08:15:38.736Z,5.27
2019-06-07T08:18:07.233Z,6.20
2019-06-07T08:20:35.605Z,5.80
2019-06-07T08:23:03.760Z,5.10
2019-06-07T08:25:31.844Z,6.60
2019-06-07T08:28:00.225Z,6.40
2019-06-07T08:30:49.836Z,6.10
2019-06-07T08:33:23.866Z,6.40
2019-06-07T08:36:06.241Z,6.03
2019-06-07T08:38:26.894Z,6.10
2019-06-07T08:40:29.621Z,7.20
2019-06-07T08:43:15.257Z,6.50
2019-06-07T08:45:29.099Z,6.10
2019-06-07T08:48:04.421Z,6.30
2019-06-07T08:50:27.830Z,6.53
2019-06-07T08:53:02.974Z,6.70
2019-06-07T08:55:25.731Z,6.40
2019-06-07T08:57:57.233Z,6.23
2019-06-07T09:02:57.811Z,5.00
2019-06-07T09:05:25.400Z,4.80
2019-06-07T09:08:14.798Z,4.53
2019-06-07T09:10:24.105Z,5.30
2019-06-07T09:12:54.406Z,5.40
2019-06-07T09:15:24.330Z,5.73
2019-06-07T09:18:34.862Z,5.73
2019-06-07T09:20:36.510Z,5.90
2019-06-07T09:22:57.787Z,4.47
2019-06-07T09:25:24.006Z,4.50
2019-06-07T09:27:53.269Z,4.10
2019-06-07T09:30:24.759Z,3.67
2019-06-07T09:32:53.188Z,3.47
2019-06-07T09:35:21.875Z,3.57
2019-06-07T09:38:22.921Z,4.07
2019-06-07T09:40:27.632Z,4.47
2019-06-07T09:43:38.643Z,3.73
2019-06-07T09:45:23.890Z,3.30
2019-06-07T09:47:52.317Z,4.13
2019-06-07T09:50:20.718Z,4.43
2019-06-07T09:52:58.628Z,4.40
2019-06-07T09:55:24.347Z,4.70
2019-06-07T09:57:49.442Z,4.83
2019-06-07T10:00:39.879Z,4.67
2019-06-07T10:02:49.981Z,4.93
2019-06-07T10:05:18.534Z,4.57
2019-06-07T10:08:02.381Z,4.60
2019-06-07T10:12:47.632Z,4.10
2019-06-07T10:15:16.385Z,3.47
2019-06-07T10:17:44.816Z,3.40
2019-06-07T10:20:13.698Z,3.63
2019-06-07T10:22:42.152Z,3.80
2019-06-07T10:25:10.759Z,3.63
2019-06-07T10:27:39.218Z,3.77
2019-06-07T10:30:08.364Z,3.80
2019-06-07T10:32:36.865Z,3.50
2019-06-07T10:35:10.177Z,3.60
2019-06-07T10:37:38.526Z,3.97
2019-06-07T10:40:11.354Z,3.50
2019-06-07T10:42:40.273Z,3.53
2019-06-07T10:45:10.325Z,3.73
2019-06-07T10:47:39.261Z,3.90
2019-06-07T10:50:08.231Z,4.23
2019-06-07T10:52:36.881Z,4.40
2019-06-07T10:55:06.563Z,3.63
2019-06-07T10:57:35.159Z,3.93
2019-06-07T11:00:05.344Z,4.20
2019-06-07T11:02:33.892Z,3.47
2019-06-07T11:05:03.599Z,3.53
2019-06-07T11:07:32.216Z,3.50
2019-06-07T11:10:07.446Z,3.60
2019-06-07T11:12:31.353Z,3.40
2019-06-07T11:14:59.767Z,3.50
2019-06-07T11:17:28.192Z,3.07
2019-06-07T11:19:56.633Z,3.57
2019-06-07T11:22:25.064Z,4.00
2019-06-07T11:24:53.485Z,3.50
2019-06-07T11:27:21.927Z,3.67
2019-06-07T11:29:50.401Z,3.50
2019-06-07T11:32:18.914Z,3.57
2019-06-07T11:34:47.012Z,4.23
2019-06-07T11:37:16.178Z,4.40
2019-06-07T11:39:44.765Z,3.50
2019-06-07T11:42:14.003Z,3.83
2019-06-07T11:44:55.756Z,3.93
2019-06-07T11:47:12.708Z,3.60
2019-06-07T11:49:41.046Z,3.93
2019-06-07T11:52:09.524Z,3.60
2019-06-07T11:54:37.947Z,3.37
2019-06-07T11:57:06.839Z,3.60
2019-06-07T11:59:35.322Z,3.73
2019-06-07T12:02:03.733Z,3.53
2019-06-07T12:04:34.723Z,3.50
2019-06-07T12:07:02.722Z,3.70
2019-06-07T12:09:31.360Z,3.90
2019-06-07T12:12:00.134Z,3.83
2019-06-07T12:14:28.570Z,4.00
2019-06-07T12:16:57.048Z,3.90
2019-06-07T12:19:25.473Z,3.53
2019-06-07T12:21:53.883Z,3.70
2019-06-07T12:24:21.973Z,3.40
2019-06-07T12:26:50.390Z,3.73
2019-06-07T12:29:19.240Z,3.77
2019-06-07T12:31:47.680Z,4.20
2019-06-07T12:34:17.388Z,4.10
2019-06-07T12:36:46.274Z,3.73
2019-06-07T12:39:16.046Z,3.63
2019-06-07T12:41:44.541Z,3.63
2019-06-07T12:44:14.454Z,3.57
2019-06-07T12:46:43.073Z,3.67
2019-06-07T12:49:12.874Z,4.00
2019-06-07T12:51:41.487Z,3.97
2019-06-07T12:54:09.910Z,3.67
2019-06-07T12:56:38.320Z,3.80
2019-06-07T12:59:06.746Z,4.33
2019-06-07T13:01:34.824Z,4.23
2019-06-07T13:04:03.279Z,3.90
2019-06-07T13:06:31.944Z,3.67
2019-06-07T13:09:00.366Z,3.53
2019-06-07T13:11:31.552Z,3.87
2019-06-07T13:13:58.925Z,3.60
2019-06-07T13:16:28.470Z,3.53
2019-06-07T13:18:57.143Z,3.87
2019-06-07T13:21:25.896Z,3.70
2019-06-07T13:23:54.340Z,3.50
2019-06-07T13:26:23.105Z,3.63
2019-06-07T13:28:51.779Z,3.17
2019-06-07T13:31:21.086Z,3.53
2019-06-07T13:33:49.374Z,3.60
2019-06-07T13:36:18.107Z,3.83
2019-06-07T13:38:47.005Z,3.30
2019-06-07T13:41:30.208Z,3.13
2019-06-07T13:43:45.578Z,3.63
2019-06-07T13:46:14.032Z,3.63
2019-06-07T13:48:42.508Z,3.90
2019-06-07T13:51:11.264Z,3.57
2019-06-07T13:53:39.328Z,3.57
2019-06-07T13:56:07.760Z,3.63
2019-06-07T13:58:36.177Z,3.83
2019-06-07T14:01:04.628Z,3.57
2019-06-07T14:03:34.044Z,4.07
2019-06-07T14:06:02.720Z,3.50
2019-06-07T14:08:31.133Z,3.60
2019-06-07T14:10:59.629Z,3.40
2019-06-07T14:13:28.207Z,3.53
2019-06-07T14:15:56.649Z,3.47
2019-06-07T14:18:26.334Z,3.50
2019-06-07T14:20:54.977Z,3.73
2019-06-07T14:23:40.159Z,3.13
2019-06-07T14:25:53.555Z,3.50
2019-06-07T14:28:24.785Z,3.63
2019-06-07T14:30:51.964Z,3.43
2019-06-07T14:33:23.527Z,4.00
2019-06-07T14:35:50.524Z,3.63
2019-06-07T14:38:19.267Z,3.70
2019-06-07T14:40:47.696Z,4.23
2019-06-07T14:43:16.113Z,4.20
2019-06-07T14:45:44.540Z,3.50
2019-06-07T14:48:12.994Z,4.10
2019-06-07T14:50:41.413Z,3.57
2019-06-07T14:53:09.838Z,3.77
2019-06-07T14:55:38.272Z,3.50
2019-06-07T14:58:06.664Z,3.70
2019-06-07T15:00:43.100Z,4.03
2019-06-07T15:03:11.862Z,3.50
2019-06-07T15:05:41.009Z,4.00
2019-06-07T15:08:09.430Z,3.57
2019-06-07T15:10:38.968Z,4.10
2019-06-07T15:13:08.145Z,3.73
2019-06-07T15:15:36.625Z,3.90
2019-06-07T15:18:04.996Z,3.87
2019-06-07T15:20:34.121Z,3.80
2019-06-07T15:23:02.605Z,3.40
2019-06-07T15:25:31.211Z,3.57
2019-06-07T15:27:59.715Z,3.50
2019-06-07T15:30:29.494Z,3.53
2019-06-07T15:32:59.761Z,3.70
2019-06-07T15:35:28.173Z,3.37
2019-06-07T15:37:56.590Z,3.40
2019-06-07T15:40:25.009Z,3.63
2019-06-07T15:42:53.497Z,4.40
2019-06-07T15:45:22.073Z,3.50
2019-06-07T15:47:50.498Z,3.57
2019-06-07T15:50:19.154Z,3.50
2019-06-07T15:52:47.569Z,3.33
2019-06-07T15:55:16.626Z,3.20
2019-06-07T15:57:45.037Z,3.60
2019-06-07T16:00:19.019Z,4.03
2019-06-07T16:02:47.523Z,4.13
2019-06-07T16:05:15.981Z,4.40
2019-06-07T16:07:44.081Z,4.40
2019-06-07T16:10:12.944Z,4.07
2019-06-07T16:12:58.613Z,3.97
2019-06-07T16:15:11.442Z,4.10
2019-06-07T16:17:41.820Z,3.87
2019-06-07T16:20:10.676Z,3.70
2019-06-07T16:22:39.755Z,4.07
2019-06-07T16:25:08.081Z,3.77
2019-06-07T16:27:36.775Z,3.50
2019-06-07T16:30:09.247Z,3.30
2019-06-07T16:32:37.428Z,3.13
2019-06-07T16:35:07.228Z,2.97
2019-06-07T16:37:36.306Z,3.50
2019-06-07T16:40:10.693Z,3.53
2019-06-07T16:42:40.435Z,3.40
2019-06-07T16:45:09.804Z,4.13
2019-06-07T16:47:40.560Z,4.20
2019-06-07T16:50:08.729Z,4.00
2019-06-07T16:52:37.334Z,4.60
2019-06-07T16:55:24.723Z,3.93
2019-06-07T16:57:53.132Z,3.27
2019-06-07T17:00:22.291Z,3.13
2019-06-07T17:02:50.951Z,2.87
2019-06-07T17:05:19.367Z,3.00
2019-06-07T17:07:49.015Z,2.50
2019-06-07T17:10:18.001Z,2.57
2019-06-07T17:12:46.934Z,2.20
2019-06-07T17:15:16.003Z,2.50
2019-06-07T17:17:45.109Z,2.40
2019-06-07T17:20:13.535Z,2.30
2019-06-07T17:22:43.495Z,2.83
2019-06-07T17:25:12.617Z,2.00
2019-06-07T17:27:42.032Z,2.07
2019-06-07T17:30:11.842Z,2.40
2019-06-07T17:32:50.610Z,1.67
2019-06-07T17:35:10.683Z,2.10
2019-06-07T17:37:41.551Z,1.80
2019-06-07T17:40:11.113Z,1.67
2019-06-07T17:42:40.707Z,1.90
2019-06-07T17:45:29.757Z,1.70
2019-06-07T17:47:58.207Z,1.30
2019-06-07T17:50:26.622Z,1.00
2019-06-07T17:52:54.706Z,1.60
2019-06-07T17:55:22.780Z,1.30
2019-06-07T17:57:50.962Z,1.20
2019-06-07T18:00:28.541Z,1.10
2019-06-07T18:02:50.980Z,1.40
2019-06-07T18:05:19.364Z,1.30
2019-06-07T18:07:51.825Z,1.10
2019-06-07T18:10:26.302Z,1.03
2019-06-07T18:12:54.734Z,1.10
2019-06-07T18:15:24.353Z,0.90
2019-06-07T18:17:52.839Z,1.40
2019-06-07T18:20:21.003Z,1.50
2019-06-07T18:22:49.110Z,0.90
2019-06-07T18:25:17.597Z,1.40
2019-06-07T18:27:46.549Z,1.10
2019-06-07T18:30:15.054Z,1.23
2019-06-07T18:32:43.137Z,1.00
2019-06-07T18:35:11.634Z,1.00
2019-06-07T18:37:39.725Z,0.80
2019-06-07T18:40:07.886Z,1.00
2019-06-07T18:42:36.026Z,0.90
2019-06-07T18:45:05.645Z,1.03
2019-06-07T18:47:34.052Z,1.07
2019-06-07T18:50:02.159Z,0.90
2019-06-07T18:52:31.859Z,1.03
2019-06-07T18:55:00.289Z,0.90
2019-06-07T18:57:28.365Z,0.93
2019-06-07T18:59:56.609Z,0.73
2019-06-07T19:02:25.494Z,0.83
2019-06-07T19:04:54.267Z,0.80
2019-06-07T19:07:23.844Z,1.13
2019-06-07T19:09:52.668Z,0.90
2019-06-07T19:12:20.773Z,0.90
2019-06-07T19:14:49.292Z,0.90
2019-06-07T19:17:17.851Z,1.30
2019-06-07T19:19:46.288Z,1.20
2019-06-07T19:22:14.363Z,0.90
2019-06-07T19:24:42.787Z,0.87
2019-06-07T19:27:10.868Z,0.80
2019-06-07T19:29:38.948Z,1.00
2019-06-07T19:32:07.021Z,0.70
2019-06-07T19:34:35.118Z,0.80
2019-06-07T19:37:03.192Z,0.93
2019-06-07T19:39:31.280Z,1.17
2019-06-07T19:42:00.125Z,0.90
2019-06-07T19:44:28.768Z,0.70
2019-06-07T19:46:56.825Z,0.80
2019-06-07T19:49:25.165Z,1.30
2019-06-07T19:51:53.228Z,0.80
2019-06-07T19:54:21.312Z,0.87
2019-06-07T19:56:49.732Z,1.00
2019-06-07T19:59:17.830Z,0.90
2019-06-07T20:01:45.904Z,1.50
2019-06-07T20:04:13.991Z,0.90
2019-06-07T20:06:42.069Z,0.90
2019-06-07T20:09:10.402Z,0.80
2019-06-07T20:11:39.079Z,0.90
2019-06-07T20:14:07.501Z,1.00
2019-06-07T20:16:35.955Z,0.90
2019-06-07T20:19:05.624Z,0.90
2019-06-07T20:21:34.276Z,0.90
2019-06-07T20:24:23.844Z,0.80
2019-06-07T20:26:32.170Z,0.90
2019-06-07T20:29:01.339Z,0.80
2019-06-07T20:31:29.874Z,1.33
2019-06-07T20:33:58.660Z,1.00
2019-06-07T20:36:26.903Z,1.00
2019-06-07T20:38:54.989Z,1.20
2019-06-07T20:41:23.063Z,1.20
2019-06-07T20:43:51.799Z,0.90
2019-06-07T20:46:19.868Z,1.00
2019-06-07T20:48:48.295Z,1.27
2019-06-07T20:51:17.039Z,0.97
2019-06-07T20:53:45.132Z,1.10
2019-06-07T20:56:13.212Z,1.10
2019-06-07T20:58:41.315Z,1.13
2019-06-07T21:01:09.390Z,1.00
2019-06-07T21:03:56.998Z,1.00
2019-06-07T21:06:26.153Z,1.07
2019-06-07T21:08:54.571Z,0.90
2019-06-07T21:11:23.491Z,1.07
2019-06-07T21:13:51.988Z,1.00
2019-06-07T21:16:21.070Z,1.10
2019-06-07T21:18:49.947Z,1.20
2019-06-07T21:21:18.324Z,1.20
2019-06-07T21:23:46.756Z,1.10
2019-06-07T21:26:15.244Z,1.10
2019-06-07T21:28:44.803Z,0.90
2019-06-07T21:31:15.244Z,1.00
2019-06-07T21:33:43.762Z,1.30
2019-06-07T21:36:12.232Z,1.07
2019-06-07T21:38:41.170Z,1.57
2019-06-07T21:41:10.682Z,1.50
2019-06-07T21:43:39.280Z,1.10
2019-06-07T21:46:12.790Z,1.30
2019-06-07T21:49:00.483Z,1.20
2019-06-07T21:51:28.973Z,1.20
2019-06-07T21:53:57.414Z,1.17
2019-06-07T21:56:27.589Z,1.40
2019-06-07T21:58:56.702Z,1.50
2019-06-07T22:01:26.568Z,1.07
2019-06-07T22:03:55.361Z,1.30
2019-06-07T22:06:23.845Z,1.30
2019-06-07T22:08:53.207Z,1.73
2019-06-07T22:11:21.639Z,1.47
2019-06-07T22:13:50.068Z,1.57
2019-06-07T22:16:28.231Z,1.40
2019-06-07T22:18:50.724Z,1.33
2019-06-07T22:21:19.333Z,1.60
2019-06-07T22:23:47.988Z,1.50
2019-06-07T22:26:17.355Z,1.20
2019-06-07T22:28:46.226Z,1.00
2019-06-07T22:31:15.726Z,1.00
2019-06-07T22:33:44.193Z,1.07
2019-06-07T22:36:15.855Z,1.13
2019-06-07T22:38:45.313Z,1.10
2019-06-07T22:41:14.016Z,1.07
2019-06-07T22:43:42.485Z,1.20
2019-06-07T22:46:12.997Z,1.00
2019-06-07T22:48:42.483Z,1.30
2019-06-07T22:51:12.708Z,1.13
2019-06-07T22:53:42.349Z,1.10
2019-06-07T22:56:16.070Z,1.20
2019-06-07T22:59:04.226Z,1.07
2019-06-07T23:01:33.358Z,1.17
2019-06-07T23:04:02.578Z,1.10
2019-06-07T23:06:31.113Z,1.50
2019-06-07T23:09:00.278Z,1.53
2019-06-07T23:11:28.764Z,1.27
2019-06-07T23:13:57.514Z,1.00
2019-06-07T23:16:26.186Z,1.17
2019-06-07T23:18:54.656Z,1.10
2019-06-07T23:21:23.144Z,1.00
2019-06-07T23:23:51.227Z,1.27
2019-06-07T23:26:21.128Z,1.17
2019-06-07T23:28:49.551Z,1.30
2019-06-07T23:31:20.875Z,1.00
2019-06-07T23:34:08.635Z,1.40
2019-06-07T23:36:38.176Z,1.30
2019-06-07T23:39:08.772Z,1.40
2019-06-07T23:41:38.435Z,1.03
2019-06-07T23:44:07.602Z,1.83
2019-06-07T23:46:36.887Z,1.43
2019-06-07T23:49:05.402Z,1.07
2019-06-07T23:51:33.508Z,1.30
2019-06-07T23:54:03.676Z,1.33
2019-06-07T23:56:34.040Z,1.40
2019-06-07T23:59:02.626Z,1.13
